الصفحة الرئيسية
METAR-TAF:

METAR-TAF

مطار :

Broken Hill, أستراليا

دائرة عرض: 32-00-06S, خط طول: 141-28-18E, ارتفاع: 292 متر

مراقبة الطقس الحالي

تاريخ ووقت الإصدار 1ساعة و 13 دقيقة قبل الساعة 19:00UTC
ريح 5 عقدة من الجنوب
درجة الحرارة 8°درجة مئوية
الرطوبة 57%
ضغط 1025 hPa
الرؤية 10 كم أو أكثر

METAR: YBHI 171900Z AUTO 19005KT 9999 // NCD 08/00 Q1025

زمن: 05:43 (20:13 UTC)


TAF: مفقودة

أرصاد الطقس والتوقعات من أكثر من 4000 مطار (تقارير الطقس للمطار METAR والتنبؤ بالطقس بالمطارTAF).

المحطات المتاحة هي النقط الصفراء والحمراء على الخريطة.

حرك المؤشر فوق النقطة لمعرفة اسم المحطة.

ثم انقر لمعرفة أرصاد وتوقعات الطقس.

لتغيير الخارطة: اضغط على الأزرار الخضراء مع رمز الصليب الأسود للتكبير. على الزر الأخضر مع شرطة للتصغير، أو على الأسهم الخضراء للخرائط المجاورة.


METAR-TAF: